createdAt,value
2023-08-15T00:04:53.916Z,14.85
2023-08-15T00:10:16.610Z,13.75
2023-08-15T00:15:20.162Z,13.73
2023-08-15T00:20:23.181Z,13.88
2023-08-15T00:25:25.857Z,14.10
2023-08-15T00:30:28.291Z,14.98
2023-08-15T00:35:30.710Z,15.77
2023-08-15T00:40:33.358Z,14.77
2023-08-15T00:45:40.542Z,16.25
2023-08-15T00:50:44.699Z,14.40
2023-08-15T00:55:47.555Z,15.88
2023-08-15T01:00:52.118Z,16.77
2023-08-15T01:05:55.477Z,15.75
2023-08-15T01:10:58.201Z,17.75
2023-08-15T01:16:02.740Z,14.07
2023-08-15T01:21:07.373Z,16.00
2023-08-15T01:26:09.946Z,15.55
2023-08-15T01:31:36.455Z,16.38
2023-08-15T01:36:49.514Z,16.55
2023-08-15T01:41:54.664Z,16.90
2023-08-15T01:47:00.640Z,16.70
2023-08-15T01:52:03.103Z,15.65
2023-08-15T01:57:06.727Z,16.55
2023-08-15T02:02:09.171Z,16.67
2023-08-15T02:07:11.911Z,18.85
2023-08-15T02:12:16.632Z,16.73
2023-08-15T02:17:20.012Z,16.35
2023-08-15T02:22:23.179Z,15.55
2023-08-15T02:27:25.612Z,16.30
2023-08-15T02:32:28.228Z,17.15
2023-08-15T02:37:30.636Z,14.90
2023-08-15T02:42:33.835Z,16.35
2023-08-15T02:47:36.292Z,19.75
2023-08-15T02:52:38.740Z,16.80
2023-08-15T02:57:41.184Z,20.50
2023-08-15T03:02:43.654Z,17.30
2023-08-15T03:07:46.196Z,17.83
2023-08-15T03:12:49.374Z,17.77
2023-08-15T03:17:52.558Z,17.27
2023-08-15T03:22:55.553Z,18.98
2023-08-15T03:27:58.047Z,14.93
2023-08-15T03:33:01.014Z,14.93
2023-08-15T03:38:03.969Z,15.68
2023-08-15T03:43:08.568Z,15.25
2023-08-15T03:48:11.203Z,16.77
2023-08-15T03:53:13.685Z,15.60
2023-08-15T03:58:18.666Z,14.57
2023-08-15T04:03:21.121Z,14.82
2023-08-15T04:08:23.592Z,15.57
2023-08-15T04:13:26.093Z,19.17
2023-08-15T04:18:28.615Z,26.10
2023-08-15T04:23:33.526Z,20.63
2023-08-15T04:28:36.740Z,47.67
2023-08-15T04:33:39.221Z,23.60
2023-08-15T04:38:41.688Z,28.83
2023-08-15T04:43:44.403Z,22.83
2023-08-15T04:48:46.955Z,17.85
2023-08-15T04:53:49.423Z,26.38
2023-08-15T04:58:51.871Z,30.75
2023-08-15T05:03:54.479Z,25.60
2023-08-15T05:08:58.006Z,14.98
2023-08-15T05:14:02.658Z,13.73
2023-08-15T05:19:05.680Z,22.73
2023-08-15T05:24:09.449Z,14.55
2023-08-15T05:29:12.306Z,13.77
2023-08-15T05:34:14.807Z,13.27
2023-08-15T05:39:17.291Z,13.30
2023-08-15T05:44:20.886Z,12.98
2023-08-15T05:49:23.357Z,11.65
2023-08-15T05:54:25.764Z,11.55
2023-08-15T05:59:28.231Z,9.93
2023-08-15T06:04:30.761Z,12.77
2023-08-15T06:09:33.304Z,11.45
2023-08-15T06:14:38.355Z,11.82
2023-08-15T06:19:40.986Z,12.32
2023-08-15T06:24:43.855Z,13.32
2023-08-15T06:29:46.294Z,8.57
2023-08-15T06:34:49.021Z,12.48
2023-08-15T06:39:51.510Z,17.63
2023-08-15T06:45:17.488Z,10.27
2023-08-15T06:50:20.110Z,17.15
2023-08-15T06:55:22.573Z,10.30
2023-08-15T07:00:25.081Z,19.52
2023-08-15T07:05:27.493Z,9.10
2023-08-15T07:10:33.217Z,10.75
2023-08-15T07:15:35.728Z,8.88
2023-08-15T07:20:39.145Z,9.88
2023-08-15T07:25:44.893Z,6.70
2023-08-15T07:30:49.405Z,17.30
2023-08-15T07:35:54.457Z,11.98
2023-08-15T07:40:57.052Z,10.38
2023-08-15T07:45:59.658Z,11.18
2023-08-15T07:51:02.089Z,10.68
2023-08-15T07:56:04.823Z,8.18
2023-08-15T08:01:07.338Z,10.70
2023-08-15T08:06:26.346Z,10.70
2023-08-15T08:11:33.480Z,8.02
2023-08-15T08:16:35.889Z,7.97
2023-08-15T08:21:40.600Z,8.55
2023-08-15T08:26:43.079Z,11.85
2023-08-15T08:31:45.953Z,7.63
2023-08-15T08:36:48.461Z,9.35
2023-08-15T08:41:51.469Z,6.75
2023-08-15T08:46:53.993Z,9.73
2023-08-15T08:51:58.104Z,8.70
2023-08-15T08:57:04.276Z,6.70
2023-08-15T09:02:11.666Z,10.63
2023-08-15T09:07:14.143Z,9.30
2023-08-15T09:12:33.420Z,8.10
2023-08-15T09:17:36.231Z,9.32
2023-08-15T09:22:45.317Z,7.82
2023-08-15T09:27:48.480Z,6.40
2023-08-15T09:32:50.976Z,7.15
2023-08-15T09:37:53.635Z,9.25
2023-08-15T09:42:56.051Z,7.47
2023-08-15T09:47:59.347Z,9.60
2023-08-15T09:53:04.836Z,31.50
2023-08-15T09:58:07.540Z,8.30
2023-08-15T10:03:18.575Z,8.68
2023-08-15T10:08:21.957Z,12.27
2023-08-15T10:13:28.434Z,11.40
2023-08-15T10:18:31.937Z,6.85
2023-08-15T10:23:36.245Z,38.00
2023-08-15T10:28:41.186Z,6.45
2023-08-15T10:33:46.101Z,18.20
2023-08-15T10:38:53.815Z,6.28
2023-08-15T10:43:57.141Z,11.07
2023-08-15T10:49:11.580Z,7.38
2023-08-15T10:54:15.902Z,13.73
2023-08-15T10:59:20.768Z,8.75
2023-08-15T11:04:25.786Z,8.13
2023-08-15T11:09:32.150Z,23.23
2023-08-15T11:14:35.053Z,11.52
2023-08-15T11:19:37.824Z,7.40
2023-08-15T11:24:40.308Z,7.18
2023-08-15T11:29:42.992Z,11.15
2023-08-15T11:34:46.341Z,11.00
2023-08-15T11:39:53.442Z,14.25
2023-08-15T11:45:08.730Z,19.27
2023-08-15T11:50:11.477Z,28.30
2023-08-15T11:55:14.088Z,37.63
2023-08-15T12:00:18.045Z,17.02
2023-08-15T12:05:20.964Z,13.63
2023-08-15T12:10:23.384Z,17.88
2023-08-15T12:15:25.948Z,16.27
2023-08-15T12:20:28.437Z,12.45
2023-08-15T12:25:31.057Z,6.60
2023-08-15T12:30:34.380Z,9.73
2023-08-15T12:35:37.318Z,8.93
2023-08-15T12:40:42.116Z,8.65
2023-08-15T12:45:44.615Z,11.85
2023-08-15T12:50:47.384Z,8.98
2023-08-15T12:55:49.858Z,5.90
2023-08-15T13:00:52.542Z,8.05
2023-08-15T13:05:55.070Z,11.85
2023-08-15T13:11:00.693Z,7.82
2023-08-15T13:16:04.468Z,7.32
2023-08-15T13:21:07.107Z,11.68
2023-08-15T13:26:09.528Z,38.80
2023-08-15T13:31:12.097Z,8.85
2023-08-15T13:36:14.630Z,7.43
2023-08-15T13:41:17.111Z,7.82
2023-08-15T13:46:20.321Z,5.47
2023-08-15T13:51:22.881Z,8.00
2023-08-15T13:56:28.352Z,6.45
2023-08-15T14:01:33.474Z,6.22
2023-08-15T14:06:36.064Z,7.78
2023-08-15T14:11:38.590Z,8.10
2023-08-15T14:16:41.241Z,5.13
2023-08-15T14:21:44.793Z,6.72
2023-08-15T14:26:47.134Z,13.88
2023-08-15T14:31:49.590Z,9.90
2023-08-15T14:36:52.060Z,7.47
2023-08-15T14:41:54.514Z,5.05
2023-08-15T14:46:56.838Z,4.47
2023-08-15T14:51:59.279Z,17.52
2023-08-15T14:57:01.665Z,13.60
2023-08-15T15:02:04.363Z,6.15
2023-08-15T15:07:10.173Z,9.02
2023-08-15T15:12:12.547Z,9.65
2023-08-15T15:17:14.903Z,10.55
2023-08-15T15:22:17.416Z,6.32
2023-08-15T15:27:19.774Z,11.48
2023-08-15T15:32:22.583Z,9.77
2023-08-15T15:37:25.273Z,6.80
2023-08-15T15:42:27.682Z,10.60
2023-08-15T15:47:30.147Z,9.85
2023-08-15T15:52:32.864Z,8.35
2023-08-15T15:57:35.267Z,5.60
2023-08-15T16:02:37.648Z,15.25
2023-08-15T16:07:40.063Z,14.73
2023-08-15T16:12:42.579Z,15.55
2023-08-15T16:17:47.121Z,6.25
2023-08-15T16:22:49.696Z,12.60
2023-08-15T16:27:52.182Z,11.60
2023-08-15T16:32:55.293Z,7.15
2023-08-15T16:37:57.956Z,6.72
2023-08-15T16:43:17.382Z,5.70
2023-08-15T16:48:19.894Z,24.95
2023-08-15T16:53:22.374Z,13.13
2023-08-15T16:58:24.762Z,6.32
2023-08-15T17:03:27.248Z,4.55
2023-08-15T17:08:29.696Z,10.50
2023-08-15T17:13:32.271Z,12.38
2023-08-15T17:18:34.634Z,16.02
2023-08-15T17:23:36.995Z,13.65
2023-08-15T17:28:39.498Z,21.10
2023-08-15T17:33:42.115Z,16.25
2023-08-15T17:38:44.642Z,9.68
2023-08-15T17:43:47.143Z,21.15
2023-08-15T17:48:49.515Z,40.33
2023-08-15T17:53:51.859Z,31.92
2023-08-15T17:58:54.776Z,30.92
2023-08-15T18:04:05.244Z,21.48
2023-08-15T18:09:07.969Z,8.38
2023-08-15T18:14:10.413Z,11.75
2023-08-15T18:19:12.817Z,20.13
2023-08-15T18:24:15.297Z,12.60
2023-08-15T18:29:17.770Z,15.25
2023-08-15T18:34:20.633Z,22.17
2023-08-15T18:39:23.265Z,16.25
2023-08-15T18:44:25.721Z,14.55
2023-08-15T18:49:28.185Z,17.95
2023-08-15T18:54:30.583Z,19.30
2023-08-15T18:59:33.024Z,27.08
2023-08-15T19:04:35.415Z,139.65
2023-08-15T19:09:37.894Z,116.13
2023-08-15T19:14:40.325Z,88.50
2023-08-15T19:19:42.748Z,87.47
2023-08-15T19:24:45.707Z,56.25
2023-08-15T19:29:48.221Z,45.03
2023-08-15T19:34:51.271Z,31.85
2023-08-15T19:39:53.701Z,33.55
2023-08-15T19:44:56.161Z,32.92
2023-08-15T19:49:58.594Z,22.55
2023-08-15T19:55:01.869Z,20.95
2023-08-15T20:00:06.063Z,21.02
2023-08-15T20:05:10.592Z,20.40
2023-08-15T20:10:13.426Z,19.60
2023-08-15T20:15:16.127Z,20.92
2023-08-15T20:20:18.608Z,40.22
2023-08-15T20:25:20.996Z,37.20
2023-08-15T20:30:24.052Z,37.30
2023-08-15T20:35:26.936Z,34.42
2023-08-15T20:40:29.357Z,27.65
2023-08-15T20:45:31.758Z,19.38
2023-08-15T20:50:34.182Z,22.80
2023-08-15T20:55:36.561Z,19.52
2023-08-15T21:00:38.989Z,26.63
2023-08-15T21:05:43.242Z,23.95
2023-08-15T21:10:45.683Z,21.52
2023-08-15T21:15:48.135Z,23.33
2023-08-15T21:20:50.913Z,15.88
2023-08-15T21:25:53.386Z,16.73
2023-08-15T21:30:56.865Z,19.27
2023-08-15T21:35:59.718Z,16.83
2023-08-15T21:41:02.112Z,20.77
2023-08-15T21:46:04.586Z,43.67
2023-08-15T21:51:07.210Z,54.33
2023-08-15T21:56:09.948Z,62.60
2023-08-15T22:01:12.405Z,60.33
2023-08-15T22:06:14.984Z,44.90
2023-08-15T22:11:17.374Z,35.28
2023-08-15T22:16:19.789Z,19.88
2023-08-15T22:21:22.193Z,19.48
2023-08-15T22:26:24.585Z,18.80
2023-08-15T22:31:27.027Z,18.55
2023-08-15T22:36:30.210Z,18.10
2023-08-15T22:41:32.596Z,17.38
2023-08-15T22:46:35.016Z,17.55
2023-08-15T22:51:37.382Z,14.93
2023-08-15T22:56:39.732Z,17.15
2023-08-15T23:01:42.172Z,18.75
2023-08-15T23:06:44.655Z,21.00
2023-08-15T23:11:47.684Z,23.35
2023-08-15T23:16:50.074Z,24.55
2023-08-15T23:21:52.418Z,24.30
2023-08-15T23:26:54.881Z,20.27
2023-08-15T23:31:59.699Z,19.80
2023-08-15T23:37:02.420Z,22.38
2023-08-15T23:42:04.955Z,18.88
2023-08-15T23:47:07.394Z,20.85
2023-08-15T23:52:09.778Z,20.67
2023-08-15T23:57:12.221Z,17.45
